1 Hotel West Hollywood East Helipad

US-3769 · 加利福尼亚州, 美国

罗盘
风向 的 风向 360° 直升机
风: 3 kt, 1 beaufort
0 ft 1.000 2.000 3.000 4.000 5.000
Cloud Cloud Cloud Cloud Cloud Cloud Cloud Cloud
OVC 1.800
METAR KBUR 051053Z 36003KT 10SM OVC018 13/09 A3017 RMK AO2 SLP209 T01280089

METAR 1 Hotel West Hollywood East Helipad - US-3769

1 Hotel West Hollywood East Helipad是,美国中的直升机场。 视场标高为500 ft。 该领域的国际民航组织标志是US-3769.

这份报告是针对2023年2月5日 02:53, 当地时间在Bob Hope Airport进行的。

机场观察

风向为360°,速度为3 kt。

可见度为10 mi。

有乌云密布在1.800 ft的高度。 破损或更高的上限为1.800 ft。

温度和风寒是13 °C。 露点为9 °C,相对湿度为77%。 海平面上的气压为30,17 inHg (QNH)。

白天

今天,太阳从06:47升起,在17:27降落。 这适用于1 Hotel West Hollywood East Helipad,世界夏令时可能有所不同。 当地时间与世界标准时间之间的时差为-8 小时。 当前,没有夏令时有效。

公司介绍

我们没有关于这个机场的公司信息。

体会

到Vliegles.nl去找飞行课程,跳伞和其他飞行体验。 浏览页面,了解1 Hotel West Hollywood East Helipad附近所有可用的活动。 你也可以使用搜索功能来寻找你所在地附近的特定飞行课程、跳伞或其他飞行体验。

乌云

1.800 ft OVC 乌云密布

温度 & 天气

温度 12,8 °C
露点 8,9 °C
相对湿度 77%
Kp-index 1 (0-9)

评论

AO2自动气象站,可确定降水类型
SLP209海平面压力为30,15 inHg (30,15 inHg)
T01280089温度为12,8 °C (55,0 °F),露点为8,9 °C (48,0 °F)

白天

日出
06:47 (3:44)
中午
12:07
日落
17:27

小工具

你想在你的网站上有一个关于1 Hotel West Hollywood East Helipad的当前航空天气(METAR)的小部件吗?

显示HTML代码

我们和第三方通过cookies跟踪您在我们网站上的互联网行为。如果你继续,我们认为你同意我们的饼干政策